createdAt,value
2019-04-05T00:01:35.743Z,41.27
2019-04-05T00:04:10.141Z,41.18
2019-04-05T00:06:45.047Z,41.33
2019-04-05T00:09:19.490Z,41.82
2019-04-05T00:11:53.911Z,41.34
2019-04-05T00:14:27.982Z,41.51
2019-04-05T00:17:01.979Z,41.47
2019-04-05T00:19:36.203Z,41.80
2019-04-05T00:22:10.397Z,42.05
2019-04-05T00:24:44.803Z,41.74
2019-04-05T00:27:19.922Z,41.62
2019-04-05T00:29:54.072Z,41.92
2019-04-05T00:32:28.347Z,41.83
2019-04-05T00:35:02.372Z,41.65
2019-04-05T00:37:36.306Z,41.80
2019-04-05T00:40:11.566Z,42.04
2019-04-05T00:42:46.890Z,41.49
2019-04-05T00:45:28.002Z,41.96
2019-04-05T00:47:58.174Z,41.90
2019-04-05T00:50:32.402Z,41.88
2019-04-05T00:53:06.712Z,41.57
2019-04-05T00:55:40.992Z,41.76
2019-04-05T00:58:15.122Z,41.94
2019-04-05T01:00:49.469Z,42.35
2019-04-05T01:03:23.420Z,42.70
2019-04-05T01:05:57.711Z,42.41
2019-04-05T01:08:32.189Z,42.73
2019-04-05T01:11:06.565Z,42.55
2019-04-05T01:13:42.226Z,43.21
2019-04-05T01:16:16.279Z,43.03
2019-04-05T01:18:50.658Z,43.01
2019-04-05T01:21:27.017Z,43.03
2019-04-05T01:24:03.593Z,43.69
2019-04-05T01:30:20.298Z,44.09
2019-04-05T01:32:54.990Z,43.81
2019-04-05T01:35:29.152Z,43.83
2019-04-05T01:38:04.025Z,43.82
2019-04-05T01:40:40.900Z,44.57
2019-04-05T01:43:15.343Z,44.19
2019-04-05T01:45:53.934Z,44.07
2019-04-05T01:48:26.391Z,44.20
2019-04-05T01:51:01.034Z,43.96
2019-04-05T01:53:35.225Z,44.11
2019-04-05T01:56:09.688Z,44.15
2019-04-05T01:58:43.803Z,44.28
2019-04-05T02:01:18.183Z,44.86
2019-04-05T02:03:52.685Z,44.37
2019-04-05T02:06:26.919Z,45.07
2019-04-05T02:09:01.350Z,44.69
2019-04-05T02:11:37.032Z,44.61
2019-04-05T02:14:11.475Z,44.42
2019-04-05T02:16:45.674Z,44.55
2019-04-05T02:19:20.131Z,44.45
2019-04-05T02:21:54.536Z,44.86
2019-04-05T02:24:28.960Z,45.03
2019-04-05T02:27:03.165Z,45.39
2019-04-05T02:29:37.637Z,45.57
2019-04-05T02:32:12.015Z,45.90
2019-04-05T02:34:46.265Z,46.74
2019-04-05T02:37:20.413Z,46.54
2019-04-05T02:39:54.729Z,46.84
2019-04-05T02:42:30.054Z,46.68
2019-04-05T02:45:04.621Z,46.96
2019-04-05T02:47:41.851Z,47.54
2019-04-05T02:50:17.581Z,47.39
2019-04-05T02:52:53.140Z,47.27
2019-04-05T02:55:28.785Z,47.35
2019-04-05T02:58:05.156Z,47.97
2019-04-05T03:00:40.326Z,47.51
2019-04-05T03:03:14.693Z,47.41
2019-04-05T03:05:50.142Z,47.35
2019-04-05T03:08:24.299Z,47.55
2019-04-05T03:11:20.289Z,47.53
2019-04-05T03:13:57.171Z,47.72
2019-04-05T03:16:43.548Z,48.05
2019-04-05T03:19:26.927Z,47.93
2019-04-05T03:22:08.783Z,48.13
2019-04-05T03:24:45.879Z,48.02
2019-04-05T03:27:25.142Z,47.51
2019-04-05T03:29:59.732Z,46.59
2019-04-05T03:32:34.010Z,46.50
2019-04-05T03:35:08.209Z,46.34
2019-04-05T03:37:42.339Z,46.19
2019-04-05T03:40:16.892Z,46.04
2019-04-05T03:42:51.841Z,46.03
2019-04-05T03:45:26.173Z,46.02
2019-04-05T03:48:00.516Z,45.93
2019-04-05T03:50:34.598Z,45.84
2019-04-05T03:53:09.415Z,45.82
2019-04-05T03:55:43.834Z,45.85
2019-04-05T03:58:18.625Z,45.83
2019-04-05T04:00:52.847Z,45.60
2019-04-05T04:03:27.150Z,45.61
2019-04-05T04:06:01.412Z,45.69
2019-04-05T04:08:36.990Z,46.11
2019-04-05T04:11:11.325Z,46.07
2019-04-05T04:13:45.657Z,45.24
2019-04-05T04:16:20.462Z,45.09
2019-04-05T04:18:54.970Z,45.08
2019-04-05T04:21:41.855Z,45.07
2019-04-05T04:24:16.118Z,45.02
2019-04-05T04:26:51.308Z,44.89
2019-04-05T04:29:25.689Z,44.84
2019-04-05T04:31:59.891Z,44.76
2019-04-05T04:34:35.014Z,44.83
2019-04-05T04:37:09.269Z,45.21
2019-04-05T04:39:44.560Z,44.98
2019-04-05T04:42:19.146Z,45.24
2019-04-05T04:44:54.827Z,45.50
2019-04-05T04:47:29.460Z,45.95
2019-04-05T04:50:04.541Z,46.34
2019-04-05T04:52:38.909Z,46.06
2019-04-05T04:55:13.633Z,45.94
2019-04-05T04:57:47.845Z,45.59
2019-04-05T05:00:22.440Z,45.41
2019-04-05T05:02:57.160Z,44.94
2019-04-05T05:05:32.552Z,44.71
2019-04-05T05:08:07.015Z,44.72
2019-04-05T05:10:41.398Z,44.83
2019-04-05T05:13:15.674Z,44.75
2019-04-05T05:15:50.470Z,44.68
2019-04-05T05:18:25.441Z,44.60
2019-04-05T05:20:59.828Z,44.63
2019-04-05T05:23:34.545Z,44.55
2019-04-05T05:26:09.336Z,44.55
2019-04-05T05:28:44.021Z,44.51
2019-04-05T05:31:18.262Z,44.52
2019-04-05T05:33:52.506Z,44.46
2019-04-05T05:36:26.223Z,44.29
2019-04-05T05:39:00.859Z,44.41
2019-04-05T05:41:36.678Z,44.09
2019-04-05T05:44:10.845Z,43.94
2019-04-05T05:46:45.123Z,44.00
2019-04-05T05:49:19.273Z,44.09
2019-04-05T05:51:53.899Z,44.01
2019-04-05T05:54:28.057Z,43.67
2019-04-05T05:57:02.243Z,43.83
2019-04-05T05:59:36.404Z,44.64
2019-04-05T06:02:11.775Z,45.03
2019-04-05T06:04:45.611Z,45.17
2019-04-05T06:07:20.206Z,45.19
2019-04-05T06:09:54.507Z,45.25
2019-04-05T06:12:28.693Z,44.92
2019-04-05T06:15:03.047Z,45.03
2019-04-05T06:17:37.479Z,45.05
2019-04-05T06:20:11.926Z,44.94
2019-04-05T06:22:47.579Z,44.94
2019-04-05T06:25:22.306Z,45.04
2019-04-05T06:27:57.155Z,44.97
2019-04-05T06:30:32.536Z,44.93
2019-04-05T06:33:06.862Z,44.86
2019-04-05T06:35:42.109Z,44.78
2019-04-05T06:38:16.312Z,44.59
2019-04-05T06:40:50.576Z,44.24
2019-04-05T06:43:24.797Z,44.31
2019-04-05T06:45:59.119Z,44.34
2019-04-05T06:48:33.404Z,44.28
2019-04-05T06:51:07.581Z,44.23
2019-04-05T06:53:41.891Z,44.24
2019-04-05T06:56:16.080Z,44.25
2019-04-05T06:58:50.083Z,44.24
2019-04-05T07:01:24.195Z,44.13
2019-04-05T07:03:58.182Z,43.98
2019-04-05T07:06:32.397Z,44.11
2019-04-05T07:09:07.524Z,44.12
2019-04-05T07:11:41.741Z,44.10
2019-04-05T07:14:16.207Z,44.05
2019-04-05T07:16:50.805Z,43.96
2019-04-05T07:19:25.082Z,43.68
2019-04-05T07:21:59.111Z,43.70
2019-04-05T07:24:32.979Z,43.65
2019-04-05T07:27:06.895Z,43.73
2019-04-05T07:29:40.868Z,43.58
2019-04-05T07:32:14.999Z,43.51
2019-04-05T07:34:48.942Z,43.69
2019-04-05T07:37:23.346Z,44.46
2019-04-05T07:39:57.619Z,44.39
2019-04-05T07:42:31.760Z,44.37
2019-04-05T07:45:05.792Z,44.39
2019-04-05T07:47:39.953Z,44.36
2019-04-05T07:50:14.016Z,44.42
2019-04-05T07:52:48.124Z,44.40
2019-04-05T07:55:22.263Z,44.20
2019-04-05T07:57:58.330Z,43.96
2019-04-05T08:00:51.344Z,44.01
2019-04-05T08:03:25.917Z,44.02
2019-04-05T08:06:00.053Z,43.69
2019-04-05T08:09:07.915Z,43.82
2019-04-05T08:11:44.230Z,43.64
2019-04-05T08:14:20.916Z,43.49
2019-04-05T08:16:55.167Z,43.52
2019-04-05T08:19:29.556Z,43.16
2019-04-05T08:22:03.411Z,43.32
2019-04-05T08:24:37.414Z,43.29
2019-04-05T08:27:11.811Z,43.19
2019-04-05T08:29:45.867Z,43.23
2019-04-05T08:32:21.091Z,42.99
2019-04-05T08:34:55.309Z,43.00
2019-04-05T08:37:29.336Z,43.65
2019-04-05T08:40:03.690Z,44.14
2019-04-05T08:42:37.919Z,43.03
2019-04-05T08:45:13.311Z,41.44
2019-04-05T08:47:47.360Z,40.13
2019-04-05T08:50:21.683Z,39.18
2019-04-05T08:52:55.891Z,38.47
2019-04-05T08:55:29.999Z,37.98
2019-04-05T08:58:04.129Z,37.22
2019-04-05T09:00:38.192Z,36.72
2019-04-05T09:03:12.650Z,36.13
2019-04-05T09:05:46.827Z,35.47
2019-04-05T09:08:21.476Z,35.08
2019-04-05T09:10:55.970Z,34.67
2019-04-05T09:13:30.176Z,34.36
2019-04-05T09:16:04.466Z,34.22
2019-04-05T09:18:38.532Z,33.86
2019-04-05T09:21:13.467Z,33.60
2019-04-05T09:23:47.729Z,33.42
2019-04-05T09:26:22.708Z,33.24
2019-04-05T09:28:56.901Z,33.02
2019-04-05T09:31:30.879Z,33.12
2019-04-05T09:34:05.184Z,33.68
2019-04-05T09:36:39.550Z,33.63
2019-04-05T09:39:15.705Z,33.51
2019-04-05T09:41:49.767Z,33.65
2019-04-05T09:44:24.032Z,33.72
2019-04-05T09:46:59.198Z,33.98
2019-04-05T09:49:36.883Z,34.31
2019-04-05T09:52:09.728Z,34.75
2019-04-05T09:54:43.862Z,35.19
2019-04-05T09:57:18.390Z,35.35
2019-04-05T09:59:52.288Z,35.59
2019-04-05T10:02:26.569Z,36.02
2019-04-05T10:05:00.789Z,36.63
2019-04-05T10:07:35.206Z,36.69
2019-04-05T10:10:09.453Z,36.91
2019-04-05T10:12:43.519Z,37.02
2019-04-05T10:15:17.673Z,37.43
2019-04-05T10:17:52.187Z,37.29
2019-04-05T10:20:27.434Z,37.33
2019-04-05T10:23:01.737Z,37.40
2019-04-05T10:25:36.055Z,37.57
2019-04-05T10:28:10.430Z,37.63
2019-04-05T10:30:44.906Z,37.68
2019-04-05T10:33:19.411Z,37.94
2019-04-05T10:35:53.810Z,37.94
2019-04-05T10:38:27.961Z,38.22
2019-04-05T10:41:02.404Z,38.13
2019-04-05T10:43:36.849Z,38.23
2019-04-05T10:46:11.450Z,38.51
2019-04-05T10:48:46.378Z,38.22
2019-04-05T10:51:20.649Z,38.36
2019-04-05T10:53:54.787Z,38.32
2019-04-05T10:56:28.942Z,38.34
2019-04-05T10:59:03.378Z,38.34
2019-04-05T11:01:37.674Z,38.36
2019-04-05T11:04:12.098Z,38.55
2019-04-05T11:06:47.938Z,38.54
2019-04-05T11:09:22.075Z,38.52
2019-04-05T11:11:56.374Z,38.43
2019-04-05T11:14:30.598Z,38.52
2019-04-05T11:17:05.246Z,38.60
2019-04-05T11:19:39.162Z,38.50
2019-04-05T11:22:13.261Z,38.53
2019-04-05T11:24:47.491Z,38.60
2019-04-05T11:27:21.927Z,38.65
2019-04-05T11:29:57.797Z,38.53
2019-04-05T11:32:34.349Z,38.48
2019-04-05T11:35:09.039Z,38.41
2019-04-05T11:37:43.399Z,38.40
2019-04-05T11:40:17.823Z,38.33
2019-04-05T11:42:52.291Z,38.21
2019-04-05T11:45:26.462Z,38.29
2019-04-05T11:48:01.884Z,38.46
2019-04-05T11:50:36.886Z,38.32
2019-04-05T11:53:11.604Z,38.34
2019-04-05T11:55:46.749Z,38.67
2019-04-05T11:58:21.288Z,38.43
2019-04-05T12:00:58.936Z,38.54
2019-04-05T12:03:33.056Z,38.91
2019-04-05T12:06:07.495Z,38.52
2019-04-05T12:08:41.945Z,38.79
2019-04-05T12:11:16.260Z,38.64
2019-04-05T12:13:50.595Z,38.70
2019-04-05T12:16:24.737Z,38.63
2019-04-05T12:18:59.119Z,38.76
2019-04-05T12:21:34.860Z,39.46
2019-04-05T12:24:09.547Z,39.55
2019-04-05T12:26:43.709Z,39.35
2019-04-05T12:29:17.709Z,39.03
2019-04-05T12:31:53.435Z,38.88
2019-04-05T12:34:28.726Z,38.83
2019-04-05T12:37:03.115Z,38.80
2019-04-05T12:39:38.675Z,38.78
2019-04-05T12:42:13.092Z,37.34
2019-04-05T12:44:47.299Z,37.09
2019-04-05T12:47:21.579Z,37.13
2019-04-05T12:49:55.768Z,37.05
2019-04-05T12:52:29.920Z,37.27
2019-04-05T12:55:04.214Z,37.22
2019-04-05T12:57:38.238Z,37.47
2019-04-05T13:00:14.235Z,37.65
2019-04-05T13:02:50.361Z,37.38
2019-04-05T13:05:24.278Z,37.71
2019-04-05T13:07:58.274Z,37.67
2019-04-05T13:10:32.503Z,37.83
2019-04-05T13:13:06.984Z,38.26
2019-04-05T13:15:41.333Z,38.95
2019-04-05T13:18:15.208Z,39.38
2019-04-05T13:20:49.024Z,39.58
2019-04-05T13:23:23.087Z,39.73
2019-04-05T13:25:57.927Z,39.87
2019-04-05T13:28:31.854Z,39.95
2019-04-05T13:31:06.419Z,40.00
2019-04-05T13:33:40.574Z,40.07
2019-04-05T13:36:14.765Z,40.11
2019-04-05T13:38:54.688Z,40.04
2019-04-05T13:41:24.399Z,40.05
2019-04-05T13:44:01.360Z,39.96
2019-04-05T13:46:38.311Z,40.10
2019-04-05T13:49:11.425Z,40.11
2019-04-05T13:51:45.706Z,39.95
2019-04-05T13:54:20.021Z,39.61
2019-04-05T13:56:54.346Z,39.44
2019-04-05T13:59:28.469Z,39.47
2019-04-05T14:02:06.269Z,39.50
2019-04-05T14:04:38.599Z,39.54
2019-04-05T14:07:12.639Z,39.62
2019-04-05T14:09:46.671Z,39.68
2019-04-05T14:12:20.803Z,39.73
2019-04-05T14:14:54.919Z,39.82
2019-04-05T14:17:29.151Z,39.83
2019-04-05T14:20:03.125Z,39.79
2019-04-05T14:22:37.374Z,39.69
2019-04-05T14:25:12.156Z,39.62
2019-04-05T14:27:47.252Z,39.66
2019-04-05T14:30:21.582Z,39.66
2019-04-05T14:32:55.800Z,39.67
2019-04-05T14:35:30.025Z,39.64
2019-04-05T14:38:04.193Z,37.80
2019-04-05T14:40:38.374Z,37.37
2019-04-05T14:43:12.824Z,37.34
2019-04-05T14:45:49.805Z,37.84
2019-04-05T14:48:27.310Z,38.21
2019-04-05T14:51:00.029Z,38.37
2019-04-05T14:53:34.030Z,38.52
2019-04-05T14:56:08.392Z,38.64
2019-04-05T14:58:42.588Z,38.78
2019-04-05T15:01:17.560Z,38.91
2019-04-05T15:03:51.936Z,39.23
2019-04-05T15:06:26.737Z,39.30
2019-04-05T15:09:02.135Z,39.95
2019-04-05T15:11:37.269Z,40.46
2019-04-05T15:14:11.636Z,40.60
2019-04-05T15:16:45.630Z,40.72
2019-04-05T15:19:19.649Z,40.79
2019-04-05T15:22:05.178Z,40.97
2019-04-05T15:24:29.596Z,41.00
2019-04-05T15:27:03.596Z,41.06
2019-04-05T15:29:37.644Z,41.21
2019-04-05T15:32:12.078Z,41.31
2019-04-05T15:34:46.289Z,41.38
2019-04-05T15:37:20.633Z,41.35
2019-04-05T15:39:54.828Z,41.49
2019-04-05T15:42:29.276Z,41.80
2019-04-05T15:45:03.533Z,41.98
2019-04-05T15:47:37.898Z,40.29
2019-04-05T15:50:12.429Z,39.47
2019-04-05T15:52:46.691Z,39.66
2019-04-05T15:55:20.759Z,39.45
2019-04-05T15:57:54.867Z,42.13
2019-04-05T16:00:44.395Z,42.45
2019-04-05T16:03:18.549Z,41.38
2019-04-05T16:05:52.607Z,39.70
2019-04-05T16:08:27.439Z,38.29
2019-04-05T16:11:01.775Z,36.81
2019-04-05T16:13:35.839Z,35.71
2019-04-05T16:16:10.243Z,35.07
2019-04-05T16:18:44.500Z,34.15
2019-04-05T16:21:18.700Z,33.51
2019-04-05T16:23:52.701Z,33.08
2019-04-05T16:26:27.112Z,32.51
2019-04-05T16:29:01.383Z,32.11
2019-04-05T16:31:35.542Z,31.91
2019-04-05T16:34:09.967Z,31.58
2019-04-05T16:36:46.772Z,31.27
2019-04-05T16:39:22.428Z,31.21
2019-04-05T16:41:58.631Z,31.02
2019-04-05T16:44:33.011Z,30.80
2019-04-05T16:47:07.067Z,30.60
2019-04-05T16:49:41.219Z,30.42
2019-04-05T16:52:15.111Z,30.44
2019-04-05T16:54:49.532Z,30.68
2019-04-05T16:57:24.819Z,30.57
2019-04-05T16:59:58.774Z,30.44
2019-04-05T17:02:32.997Z,30.71
2019-04-05T17:05:07.472Z,30.85
2019-04-05T17:07:41.542Z,31.07
2019-04-05T17:10:15.804Z,31.17
2019-04-05T17:12:50.141Z,31.23
2019-04-05T17:15:24.188Z,31.60
2019-04-05T17:17:59.950Z,31.57
2019-04-05T17:20:34.078Z,31.69
2019-04-05T17:23:08.209Z,31.93
2019-04-05T17:25:42.533Z,32.05
2019-04-05T17:28:16.641Z,32.33
2019-04-05T17:30:51.270Z,32.61
2019-04-05T17:33:25.733Z,32.63
2019-04-05T17:36:00.212Z,32.58
2019-04-05T17:38:34.256Z,32.56
2019-04-05T17:41:08.479Z,32.65
2019-04-05T17:43:42.688Z,32.40
2019-04-05T17:46:17.288Z,32.41
2019-04-05T17:48:52.012Z,32.30
2019-04-05T17:51:26.466Z,32.30
2019-04-05T17:54:00.435Z,32.39
2019-04-05T17:56:35.270Z,32.65
2019-04-05T17:59:09.649Z,32.52
2019-04-05T18:01:44.370Z,32.59
2019-04-05T18:04:18.635Z,32.97
2019-04-05T18:06:52.980Z,32.81
2019-04-05T18:09:27.473Z,33.04
2019-04-05T18:12:01.745Z,33.04
2019-04-05T18:14:36.037Z,32.98
2019-04-05T18:17:10.268Z,33.15
2019-04-05T18:19:44.308Z,33.20
2019-04-05T18:22:18.035Z,33.33
2019-04-05T18:24:51.719Z,33.51
2019-04-05T18:27:25.608Z,33.64
2019-04-05T18:29:59.836Z,33.99
2019-04-05T18:32:34.161Z,34.52
2019-04-05T18:35:08.862Z,34.59
2019-04-05T18:37:43.002Z,34.08
2019-04-05T18:40:17.384Z,33.80
2019-04-05T18:42:51.638Z,33.74
2019-04-05T18:45:25.664Z,33.38
2019-04-05T18:47:59.865Z,33.28
2019-04-05T18:50:33.876Z,33.52
2019-04-05T18:53:08.096Z,33.17
2019-04-05T18:55:42.353Z,33.22
2019-04-05T18:58:16.940Z,33.12
2019-04-05T19:00:51.147Z,33.63
2019-04-05T19:03:25.675Z,33.50
2019-04-05T19:05:59.601Z,33.69
2019-04-05T19:08:39.858Z,33.60
2019-04-05T19:11:09.797Z,33.79
2019-04-05T19:13:43.897Z,33.82
2019-04-05T19:16:18.142Z,34.15
2019-04-05T19:18:52.308Z,34.19
2019-04-05T19:21:27.713Z,34.51
2019-04-05T19:24:01.811Z,34.45
2019-04-05T19:26:36.121Z,34.83
2019-04-05T19:29:10.004Z,34.86
2019-04-05T19:49:57.218Z,36.09
2019-04-05T19:52:31.345Z,36.07
2019-04-05T19:55:05.608Z,36.50
2019-04-05T19:57:39.730Z,36.33
2019-04-05T20:00:14.237Z,36.71
2019-04-05T20:02:48.638Z,36.33
2019-04-05T20:05:22.767Z,35.89
2019-04-05T20:07:56.952Z,35.17
2019-04-05T20:10:31.143Z,35.00
2019-04-05T20:13:05.284Z,34.63
2019-04-05T20:15:39.665Z,34.22
2019-04-05T20:18:13.832Z,33.78
2019-04-05T20:20:49.024Z,33.55
2019-04-05T20:23:23.055Z,33.42
2019-04-05T20:25:57.251Z,33.92
2019-04-05T20:28:31.348Z,33.49
2019-04-05T20:31:05.738Z,33.42
2019-04-05T20:33:39.941Z,32.90
2019-04-05T20:36:14.222Z,32.96
2019-04-05T20:38:48.044Z,32.51
2019-04-05T20:41:22.231Z,32.48
2019-04-05T20:43:56.332Z,32.35
2019-04-05T20:46:30.702Z,32.39
2019-04-05T20:49:04.757Z,32.26
2019-04-05T20:51:38.820Z,32.29
2019-04-05T20:54:12.808Z,32.22
2019-04-05T20:56:47.019Z,32.26
2019-04-05T20:59:21.190Z,32.42
2019-04-05T21:01:55.149Z,32.17
2019-04-05T21:04:29.210Z,31.91
2019-04-05T21:07:03.255Z,31.92
2019-04-05T21:09:37.579Z,31.87
2019-04-05T21:12:11.656Z,32.03
2019-04-05T21:14:45.556Z,32.00
2019-04-05T21:17:19.850Z,31.92
2019-04-05T21:19:53.955Z,31.88
2019-04-05T21:22:28.208Z,32.21
2019-04-05T21:25:02.156Z,32.13
2019-04-05T21:27:36.558Z,31.84
2019-04-05T21:30:11.368Z,31.94
2019-04-05T21:32:45.634Z,32.27
2019-04-05T21:35:19.892Z,31.89
2019-04-05T21:37:53.855Z,31.96
2019-04-05T21:40:28.001Z,32.13
2019-04-05T21:43:02.212Z,32.10
2019-04-05T21:45:36.421Z,32.44
2019-04-05T21:48:10.592Z,32.86
2019-04-05T21:50:44.873Z,32.97
2019-04-05T21:53:19.017Z,32.86
2019-04-05T21:55:53.192Z,33.26
2019-04-05T21:58:27.149Z,33.20
2019-04-05T22:01:06.402Z,33.28
2019-04-05T22:03:40.916Z,33.48
2019-04-05T22:06:15.363Z,33.26
2019-04-05T22:08:49.668Z,33.52
2019-04-05T22:11:23.919Z,33.43
2019-04-05T22:13:58.004Z,33.72
2019-04-05T22:16:32.005Z,34.33
2019-04-05T22:19:06.055Z,34.26
2019-04-05T22:21:41.553Z,34.44
2019-04-05T22:24:15.924Z,34.47
2019-04-05T22:26:50.063Z,34.44
2019-04-05T22:29:23.957Z,34.70
2019-04-05T22:31:57.974Z,34.60
2019-04-05T22:34:32.330Z,34.63
2019-04-05T22:37:07.255Z,34.69
2019-04-05T22:39:41.217Z,34.65
2019-04-05T22:42:15.318Z,34.85
2019-04-05T22:44:49.485Z,34.75
2019-04-05T22:47:23.596Z,34.68
2019-04-05T22:49:57.584Z,34.74
2019-04-05T22:52:31.653Z,34.84
2019-04-05T22:55:11.705Z,34.82
2019-04-05T22:57:42.080Z,34.84
2019-04-05T23:00:16.602Z,34.82
2019-04-05T23:02:51.983Z,35.07
2019-04-05T23:05:26.172Z,35.20
2019-04-05T23:08:00.404Z,35.30
2019-04-05T23:10:34.441Z,35.53
2019-04-05T23:13:08.490Z,35.53
2019-04-05T23:15:42.734Z,35.76
2019-04-05T23:18:16.885Z,35.79
2019-04-05T23:20:51.068Z,35.93
2019-04-05T23:23:25.071Z,35.99
2019-04-05T23:25:59.507Z,36.05
2019-04-05T23:28:33.767Z,36.14
2019-04-05T23:31:08.004Z,36.21
2019-04-05T23:33:42.317Z,36.31
2019-04-05T23:36:16.374Z,36.51
2019-04-05T23:38:50.476Z,36.34
2019-04-05T23:41:24.354Z,36.38
2019-04-05T23:43:58.644Z,36.40
2019-04-05T23:46:32.929Z,36.47
2019-04-05T23:49:06.931Z,36.47
2019-04-05T23:51:41.203Z,36.50
2019-04-05T23:54:15.315Z,36.58
2019-04-05T23:56:49.387Z,36.72
2019-04-05T23:59:23.378Z,36.84
